Kansas City, Missouri
Traffic Map
Current Weather Conditions
Kansas City, Missouri
Clear
Clear
91°
Feels Like: 103°
Wind Chill: 91° Ceiling: Unl
Heat Index: 103° Visibility: 10mi
Dew Point: 76° Wind: 7mph
Humidity: 61% Direction: 20° (NNE)
Pressure: 30in Gusts: 0mph
Raw Report DataKMKC 230154Z 02006KT 10SM CLR 33/24 A3000 RMK AO2 SLP150 T03280244
Traffic Incident Summary
Active as of:
Severity:
Category:
InformationThere was an issue retrieving the traffic information for this location. Please try a different location or try again shortly.
Advertisements
Track Severe Weather on mobile